Terminal Aerodrome Forecast
Issued by NWS Mt. Holly, NJ

Home | Current Version | Previous Version | Text Only | Print | Product List | Glossary On
Versions: 1 2 3 4 5 6 7 8 9 10 11 12 13 14 15 16 17 18 19 20 21 22 23 24
000
FTUS41 KPHI 310544
TAFACY
TAF
KACY 310544Z 3106/0106 13006KT P6SM SCT025 BKN100
     FM310800 12004KT P6SM OVC050
     FM311000 14003KT P6SM OVC025
     FM311200 VRB03KT P6SM BKN050
     FM311800 19006KT P6SM BKN100
     FM312000 17003KT P6SM OVC250=

USA.gov is the U.S. government's official web portal to all federal, state and local government web resources and services.